默认 日期 大小 文件数 浏览量 最新下载 xml
at you磁力链接相关资源由用户搜索指令自动获取,结果来源于网络,本站不存储任何资料,亦不承担任何责任,请于24小时内删除,搜索到1621个磁力,用时13ms。
    ... , "Lookin' at You - 09 - Take Time.mp3": 9085958, "Lookin' at You - 02 - Lookin' at You.mp3 ... ": 6897739, "Lookin' at You - 07 - The ...
创建时间: 2019-02-21 22:40:36 大小:86.45 MB 文件数量:11 热度:7 最近下载:2025-08-18 18:41:02
    ... Marketed.mp3": 9738493, "02. You Let Sunshine Pass You By.mp3": 7258950}
创建时间: 2019-02-23 07:00:07 大小:92.21 MB 文件数量:10 热度:5 最近下载:2024-05-20 14:32:02
    ... , "VTS_02_2.VOB": 24057856}, "Tesla Comming at You Live! 2008.nfo": 3280}
创建时间: 2019-03-26 15:01:31 大小:4.36 GB 文件数量:16 热度:8 最近下载:2025-08-01 12:07:02
    ... The Night.mp3": 4365887, "06 - You Drive Me Crazy.mp3": 4728466 ... ": 5074337, "07 - Hot...Just Lookin' At You.mp3": 3442211}
创建时间: 2019-04-25 10:45:36 大小:51.91 MB 文件数量:12 热度:3 最近下载:2021-06-17 16:25:58
    {"RARBG.com.txt": 34, "GNDBondage.2014.07.01.Look.At.You.All.Tied.Up.And.Gagged.XXX.HR.MP4-hUSHhUSH.mp4": 378677306, "gndbondage.2014.07.01.look.at.you.all.tied.up.and.gagged.xxx.hr.mp4-hushhush.nfo": 20792}
创建时间: 2019-05-06 22:59:40 大小:361.15 MB 文件数量:3 热度:8 最近下载:2025-01-28 10:48:01
    {"CD.jpeg": 267976, "Back.jpeg": 176398, "Front.jpeg": 278395, "06-junkie_xl-more.mp3": 10668060, "08-junkie_xl-zage.mp3": 7070895, "09-junkie_xl-clash.mp3": 8114421, "11-junkie_xl-no_way.mp3": 4771104, "10-junkie_xl-new_toy.mp3": 6679790, "07-junkie_xl- ...
创建时间: 2019-05-18 18:53:13 大小:80.24 MB 文件数量:15 热度:5 最近下载:2021-06-17 16:25:58
    {"The Most Trusted VPN.url": 153, "The Best Video Game Sale.url": 130, "Torrent Downloaded From 1337x.to.txt": 36, "Torrent Downloaded From Katcr.co.txt": 52, "Teen Kimber Lee Stares At You While She Sucks Your Cock XXX P2P.mp4": 215332671}
创建时间: 2019-05-26 10:52:40 大小:205.36 MB 文件数量:5 热度:7 最近下载:2025-03-15 17:52:03
    {"Alex Arabella 126 Set ARA126 ARA126-001.jpg": 1380607, "Alex Arabella 126 Set ARA126 ARA126-002.jpg": 1233841, "Alex Arabella 126 Set ARA126 ARA126-004.jpg": 1291087, "Alex Arabella 126 Set ARA126 ARA126-005.jpg": 1238039, "Alex Arabella 126 Set ARA126 ...
创建时间: 2019-06-06 04:54:44 大小:86.82 MB 文件数量:77 热度:5 最近下载:2022-04-09 06:24:35
    {"Pawn.Stars.S2018E15.Heres.Looking.at.You.Pawn.720p.HIST.WEB-DL.AAC2.0.H.264-AJP69.nfo": 1349, "Pawn.Stars.S2018E15.Heres.Looking.at.You.Pawn.720p.HIST.WEB-DL.AAC2.0.H.264-AJP69[N1C].mkv": 402765847}
创建时间: 2019-06-19 02:42:14 大小:384.11 MB 文件数量:2 热度:3 最近下载:2021-06-17 16:25:58
    {"01.jpg": 129408, "02.jpg": 147626, "03.jpg": 257053, "04.jpg": 153629, "05.jpg": 176052, "06.jpg": 184043, "07.jpg": 213084, "08.jpg": 176966, "09.jpg": 160925, "10.jpg": 156237, "11.jpg": 179176, "12.jpg": 219816, "13.jpg": 144070, "14.jpg": 42451}
创建时间: 2019-08-09 20:33:49 大小:2.23 MB 文件数量:14 热度:6 最近下载:2025-07-08 15:54:02
    {"VIDEO_TS": {"VIDEO_TS.BUP": 24576, "VIDEO_TS.IFO": 24576, "VIDEO_TS.VOB": 22528, "VTS_01_0.BUP": 106496, "VTS_01_0.IFO": 106496, "VTS_01_0.VOB": 81225728, "VTS_01_1.VOB": 1073739776, "VTS_01_2.VOB": 1073739776, "VTS_01_3.VOB": 1073739776, "VTS_01_4.VOB": ...
创建时间: 2019-08-13 06:44:00 大小:4.36 GB 文件数量:15 热度:9 最近下载:2025-08-01 18:48:04
    ... .mp3": 2878629, "15. Bite It You Scum ( GG Allin cover).mp3 ...
创建时间: 2019-08-31 02:46:11 大小:90.63 MB 文件数量:21 热度:5 最近下载:2024-09-21 14:09:01
    ... _metart-peek-at-you-cover.jpg": 86463, "metart-peek-at-you-cover-clean ... .jpg": 71799, "metart_peek-at-you_belka_high_0001.jpg": ... 1004740, "metart_peek-at-you_belka_high_0004.jpg": 1190354, "metart_peek-at-you_belka_high_0005.jpg": ...
创建时间: 2019-09-24 23:47:22 大小:129.74 MB 文件数量:138 热度:10 最近下载:2025-03-17 17:46:01
    {"01.jpg": 320950, "02.jpg": 359253, "03.jpg": 330752, "04.jpg": 322601, "05.jpg": 311988, "06.jpg": 349313, "07.jpg": 346266, "08.jpg": 319485, "09.jpg": 265102, "10.jpg": 304925, "11.jpg": 276192, "12.jpg": 248894, "13.jpg": 281659, "14.jpg": 306186, "15 ...
创建时间: 2019-09-30 12:27:39 大小:4.78 MB 文件数量:16 热度:6 最近下载:2023-04-22 18:50:14
    ... The Cheerleader.mp3": 1529705, "14 At a Medium Pace.mp3": 3153920 ...
创建时间: 2019-10-11 13:24:06 大小:49.99 MB 文件数量:22 热度:6 最近下载:2025-02-01 02:57:01
    {"RARBG.txt": 30, "felipe.esparza.theyre.not.gonna.laugh.at.you.2012.720p.webrip.x264-convoy.mkv": 1296480550, "felipe.esparza.theyre.not.gonna.laugh.at.you.2012.720p.webrip.x264-convoy.nfo": 2329}
创建时间: 2019-10-12 17:34:30 大小:1.21 GB 文件数量:3 热度:3 最近下载:2022-11-12 12:48:11
    {"Jesus Points the Bone at You .cue": 2378, "09 - Christian Death - ... , "12 - Christian Death - I Hate You.flac": 22588351, "03 - Christian Death ... Bone at You .log": 6581, "Christian Death - Jesus Points the Bone at You .m3u ...
创建时间: 2019-10-23 01:34:53 大小:334.94 MB 文件数量:16 热度:4 最近下载:2022-11-12 12:26:33
    ... - Message Of Love (One Look At You).cue": 515, "T-Spoon - ... Message Of Love (One Look At You).log": 1607, "T-Spoon - ... Message Of Love (One Look At You).flac": 51865680, "T-Spoon - Message ... - Message Of Love (One Look At You) [Sleeve].jpg": 1243702, "T- ...
创建时间: 2019-10-28 07:42:35 大小:51.53 MB 文件数量:6 热度:6 最近下载:2024-12-22 09:45:02
    {"dvd.jpg": 177067, "VIDEO_TS": {"VIDEO_TS.BUP": 16384, "VIDEO_TS.IFO": 16384, "VIDEO_TS.VOB": 126976, "VTS_01_0.BUP": 194560, "VTS_01_0.IFO": 194560, "VTS_01_0.VOB": 136986624, "VTS_01_1.VOB": 1073739776, "VTS_01_2.VOB": 1073739776, "VTS_01_3.VOB": ...
创建时间: 2019-11-09 02:31:00 大小:4.36 GB 文件数量:20 热度:7 最近下载:2025-03-02 00:21:03
    ... A Chain.mp3": 9185078, "01 You Keep Coming Back.mp3": 7957328 ... When I Said) I Love You.mp3": 12575793, "02 No More ... Love.mp3": 10880992, "07 (Bet You Say) Yout Want To Make ...
创建时间: 2019-12-01 21:14:03 大小:113.48 MB 文件数量:14 热度:4 最近下载:2023-12-26 06:31:04